createdAt,value
2017-08-29T00:01:35.229Z,10.60
2017-08-29T00:04:04.101Z,11.27
2017-08-29T00:06:32.982Z,8.93
2017-08-29T00:09:01.834Z,8.93
2017-08-29T00:11:30.729Z,11.63
2017-08-29T00:13:59.585Z,8.40
2017-08-29T00:16:28.478Z,9.03
2017-08-29T00:18:57.353Z,8.03
2017-08-29T00:21:25.145Z,9.20
2017-08-29T00:23:52.748Z,8.93
2017-08-29T00:26:20.251Z,9.10
2017-08-29T00:28:47.790Z,9.53
2017-08-29T00:31:16.085Z,11.23
2017-08-29T00:33:44.444Z,7.83
2017-08-29T00:36:12.150Z,10.83
2017-08-29T00:38:39.992Z,9.83
2017-08-29T00:41:07.540Z,9.63
2017-08-29T00:43:35.073Z,8.70
2017-08-29T00:46:02.590Z,8.80
2017-08-29T00:48:30.885Z,8.67
2017-08-29T00:50:58.402Z,8.33
2017-08-29T00:53:26.727Z,8.67
2017-08-29T00:55:54.268Z,9.90
2017-08-29T00:58:21.806Z,9.40
2017-08-29T01:00:49.325Z,8.20
2017-08-29T01:03:16.857Z,8.33
2017-08-29T01:05:44.387Z,9.53
2017-08-29T01:08:11.911Z,8.13
2017-08-29T01:10:39.432Z,8.27
2017-08-29T01:13:06.979Z,9.07
2017-08-29T01:15:34.494Z,7.80
2017-08-29T01:18:02.009Z,10.20
2017-08-29T01:20:29.550Z,8.00
2017-08-29T01:22:57.064Z,7.80
2017-08-29T01:25:24.590Z,8.07
2017-08-29T01:27:52.101Z,8.10
2017-08-29T01:30:19.631Z,8.10
2017-08-29T01:32:47.156Z,7.40
2017-08-29T01:35:15.452Z,8.40
2017-08-29T01:37:42.956Z,8.07
2017-08-29T01:40:10.530Z,7.37
2017-08-29T01:42:38.050Z,7.90
2017-08-29T01:45:05.585Z,7.27
2017-08-29T01:47:33.109Z,8.40
2017-08-29T01:50:00.641Z,7.40
2017-08-29T01:52:29.284Z,8.43
2017-08-29T01:54:57.944Z,8.23
2017-08-29T01:57:25.472Z,8.60
2017-08-29T01:59:54.146Z,8.30
2017-08-29T02:02:21.660Z,8.63
2017-08-29T02:04:49.177Z,8.10
2017-08-29T02:07:16.723Z,9.07
2017-08-29T02:09:44.223Z,7.40
2017-08-29T02:12:11.748Z,8.13
2017-08-29T02:14:39.261Z,8.43
2017-08-29T02:17:06.802Z,7.93
2017-08-29T02:19:35.449Z,9.30
2017-08-29T02:22:04.118Z,8.63
2017-08-29T02:24:31.647Z,7.77
2017-08-29T02:26:59.177Z,11.13
2017-08-29T02:29:26.696Z,8.37
2017-08-29T02:31:54.230Z,7.90
2017-08-29T02:34:21.746Z,8.10
2017-08-29T02:36:49.267Z,8.63
2017-08-29T02:39:17.550Z,8.17
2017-08-29T02:41:45.093Z,9.03
2017-08-29T02:44:12.605Z,7.90
2017-08-29T02:46:41.254Z,9.57
2017-08-29T02:49:08.784Z,8.50
2017-08-29T02:51:36.294Z,9.73
2017-08-29T02:54:03.818Z,9.90
2017-08-29T02:56:31.329Z,8.63
2017-08-29T02:58:58.858Z,9.07
2017-08-29T03:01:27.509Z,9.30
2017-08-29T03:03:55.051Z,9.30
2017-08-29T03:06:22.555Z,8.87
2017-08-29T03:08:50.085Z,9.57
2017-08-29T03:11:17.601Z,9.07
2017-08-29T03:13:45.887Z,9.10
2017-08-29T03:16:13.406Z,9.33
2017-08-29T03:18:40.937Z,9.03
2017-08-29T03:21:08.462Z,9.20
2017-08-29T03:23:36.014Z,9.13
2017-08-29T03:26:03.521Z,7.73
2017-08-29T03:28:31.051Z,7.50
2017-08-29T03:30:58.576Z,9.07
2017-08-29T03:33:26.086Z,9.40
2017-08-29T03:35:54.761Z,8.57
2017-08-29T03:38:23.655Z,10.33
2017-08-29T03:40:51.186Z,9.30
2017-08-29T03:43:18.687Z,10.13
2017-08-29T03:45:46.208Z,10.93
2017-08-29T03:48:13.725Z,10.90
2017-08-29T03:50:42.026Z,10.17
2017-08-29T03:53:10.891Z,11.67
2017-08-29T03:55:39.782Z,10.27
2017-08-29T03:58:08.646Z,11.17
2017-08-29T04:00:37.525Z,9.27
2017-08-29T04:03:06.418Z,10.33
2017-08-29T04:05:35.282Z,11.00
2017-08-29T04:08:04.131Z,10.40
2017-08-29T04:10:33.014Z,10.80
2017-08-29T04:13:01.865Z,10.10
2017-08-29T04:15:30.764Z,10.83
2017-08-29T04:17:59.612Z,13.33
2017-08-29T04:20:28.468Z,9.60
2017-08-29T04:22:57.344Z,9.23
2017-08-29T04:25:26.213Z,10.20
2017-08-29T04:27:55.097Z,10.47
2017-08-29T04:30:23.958Z,9.27
2017-08-29T04:32:52.848Z,9.13
2017-08-29T04:35:21.709Z,10.30
2017-08-29T04:37:50.579Z,9.13
2017-08-29T04:40:19.437Z,9.70
2017-08-29T04:42:48.323Z,9.70
2017-08-29T04:45:17.224Z,8.67
2017-08-29T04:47:46.096Z,9.10
2017-08-29T04:50:14.844Z,9.07
2017-08-29T04:52:43.594Z,9.70
2017-08-29T04:55:12.253Z,9.17
2017-08-29T04:57:40.940Z,9.30
2017-08-29T05:00:09.589Z,9.87
2017-08-29T05:02:38.277Z,9.47
2017-08-29T05:05:06.933Z,8.73
2017-08-29T05:07:35.836Z,9.83
2017-08-29T05:10:04.485Z,9.70
2017-08-29T05:12:33.217Z,9.47
2017-08-29T05:15:01.856Z,8.60
2017-08-29T05:17:30.535Z,8.43
2017-08-29T05:19:58.040Z,9.90
2017-08-29T05:22:25.559Z,9.53
2017-08-29T05:24:53.078Z,10.03
2017-08-29T05:27:20.629Z,10.33
2017-08-29T05:29:48.133Z,9.13
2017-08-29T05:32:15.653Z,10.90
2017-08-29T05:34:44.308Z,9.90
2017-08-29T05:37:11.824Z,9.53
2017-08-29T05:39:39.344Z,10.70
2017-08-29T05:42:06.869Z,9.93
2017-08-29T05:44:34.411Z,9.67
2017-08-29T05:47:01.935Z,10.40
2017-08-29T05:49:29.474Z,9.43
2017-08-29T05:51:58.129Z,10.00
2017-08-29T05:54:25.656Z,10.50
2017-08-29T05:56:53.197Z,11.43
2017-08-29T05:59:20.748Z,11.90
2017-08-29T06:01:48.278Z,9.33
2017-08-29T06:04:16.599Z,9.33
2017-08-29T06:06:44.111Z,9.40
2017-08-29T06:09:12.421Z,9.70
2017-08-29T06:11:39.924Z,9.37
2017-08-29T06:14:07.450Z,8.93
2017-08-29T06:16:34.952Z,9.00
2017-08-29T06:19:02.484Z,9.60
2017-08-29T06:21:29.992Z,9.80
2017-08-29T06:23:57.532Z,9.37
2017-08-29T06:26:25.040Z,8.83
2017-08-29T06:28:53.723Z,9.97
2017-08-29T06:31:21.257Z,10.27
2017-08-29T06:33:48.785Z,8.90
2017-08-29T06:36:16.303Z,8.53
2017-08-29T06:38:43.821Z,7.70
2017-08-29T06:41:12.823Z,8.20
2017-08-29T06:43:41.702Z,7.93
2017-08-29T06:46:10.586Z,7.73
2017-08-29T06:48:39.458Z,7.67
2017-08-29T06:51:08.358Z,10.77
2017-08-29T06:53:37.211Z,6.93
2017-08-29T06:56:06.075Z,6.87
2017-08-29T06:58:34.951Z,7.80
2017-08-29T07:01:03.643Z,6.03
2017-08-29T07:03:32.321Z,5.90
2017-08-29T07:06:00.964Z,5.63
2017-08-29T07:08:29.625Z,6.37
2017-08-29T07:10:57.159Z,6.55
2017-08-29T07:13:24.670Z,5.78
2017-08-29T07:15:52.219Z,5.50
2017-08-29T07:18:19.738Z,5.60
2017-08-29T07:20:47.255Z,5.62
2017-08-29T07:23:14.773Z,5.75
2017-08-29T07:25:43.440Z,6.97
2017-08-29T07:28:10.957Z,4.90
2017-08-29T07:30:39.634Z,5.85
2017-08-29T07:33:07.140Z,5.60
2017-08-29T07:35:34.663Z,6.30
2017-08-29T07:38:03.314Z,9.95
2017-08-29T07:40:31.617Z,4.93
2017-08-29T07:42:59.120Z,5.10
2017-08-29T07:45:27.799Z,4.90
2017-08-29T07:47:56.452Z,6.50
2017-08-29T07:50:23.981Z,5.72
2017-08-29T07:52:52.639Z,4.45
2017-08-29T07:55:20.210Z,4.30
2017-08-29T07:57:47.729Z,5.25
2017-08-29T08:00:15.244Z,4.12
2017-08-29T08:02:43.908Z,3.40
2017-08-29T08:05:11.419Z,4.90
2017-08-29T08:07:38.973Z,3.83
2017-08-29T08:10:06.490Z,3.62
2017-08-29T08:12:35.147Z,3.55
2017-08-29T08:15:03.806Z,3.70
2017-08-29T08:17:32.867Z,4.20
2017-08-29T08:20:01.535Z,3.10
2017-08-29T08:22:30.197Z,3.45
2017-08-29T08:24:57.721Z,3.95
2017-08-29T08:27:25.289Z,3.53
2017-08-29T08:29:54.313Z,3.17
2017-08-29T08:32:21.851Z,5.78
2017-08-29T08:34:50.719Z,3.05
2017-08-29T08:37:19.390Z,3.67
2017-08-29T08:39:46.891Z,4.20
2017-08-29T08:42:15.566Z,5.22
2017-08-29T08:44:43.083Z,3.37
2017-08-29T08:47:11.973Z,3.53
2017-08-29T08:49:40.993Z,3.65
2017-08-29T08:52:08.562Z,3.53
2017-08-29T08:54:37.222Z,2.90
2017-08-29T08:57:05.899Z,3.20
2017-08-29T08:59:33.418Z,3.37
2017-08-29T09:02:00.963Z,3.60
2017-08-29T09:04:29.619Z,4.30
2017-08-29T09:06:57.145Z,2.50
2017-08-29T09:09:24.701Z,4.90
2017-08-29T09:11:53.359Z,3.53
2017-08-29T09:14:22.029Z,3.62
2017-08-29T09:16:50.687Z,2.70
2017-08-29T09:19:19.352Z,3.33
2017-08-29T09:21:48.007Z,4.35
2017-08-29T09:24:15.538Z,3.20
2017-08-29T09:26:43.053Z,4.78
2017-08-29T09:29:11.718Z,3.65
2017-08-29T09:31:40.365Z,4.55
2017-08-29T09:34:07.887Z,3.12
2017-08-29T09:36:35.392Z,8.45
2017-08-29T09:39:04.068Z,4.75
2017-08-29T09:41:33.087Z,6.40
2017-08-29T09:44:01.964Z,5.28
2017-08-29T09:46:30.609Z,2.72
2017-08-29T09:48:59.268Z,2.92
2017-08-29T09:51:29.889Z,2.72
2017-08-29T09:53:58.557Z,6.47
2017-08-29T09:56:27.202Z,3.90
2017-08-29T09:58:54.724Z,3.25
2017-08-29T10:01:23.370Z,2.60
2017-08-29T10:03:52.047Z,5.07
2017-08-29T10:06:20.715Z,3.05
2017-08-29T10:08:49.582Z,3.75
2017-08-29T10:11:17.104Z,3.67
2017-08-29T10:13:44.622Z,2.50
2017-08-29T10:16:12.162Z,2.67
2017-08-29T10:18:39.667Z,4.82
2017-08-29T10:21:07.193Z,2.90
2017-08-29T10:23:36.044Z,4.62
2017-08-29T10:26:04.922Z,3.28
2017-08-29T10:28:33.776Z,3.40
2017-08-29T10:31:01.299Z,3.12
2017-08-29T10:33:28.813Z,3.30
2017-08-29T10:35:56.348Z,3.00
2017-08-29T10:38:23.858Z,3.97
2017-08-29T10:40:51.391Z,3.95
2017-08-29T10:43:18.899Z,3.50
2017-08-29T10:59:40.954Z,6.45
2017-08-29T11:07:53.524Z,3.85
2017-08-29T11:10:21.042Z,3.80
2017-08-29T11:12:48.582Z,3.53
2017-08-29T11:15:16.097Z,3.60
2017-08-29T11:17:43.625Z,3.90
2017-08-29T11:20:11.143Z,4.35
2017-08-29T11:22:38.689Z,3.45
2017-08-29T11:25:06.262Z,4.15
2017-08-29T11:27:34.955Z,3.72
2017-08-29T11:30:02.481Z,5.15
2017-08-29T11:32:30.013Z,3.53
2017-08-29T11:34:57.531Z,3.33
2017-08-29T11:37:25.061Z,3.20
2017-08-29T11:39:52.598Z,3.12
2017-08-29T11:42:20.127Z,3.12
2017-08-29T11:44:47.664Z,4.20
2017-08-29T11:47:15.188Z,4.22
2017-08-29T11:49:42.707Z,4.10
2017-08-29T11:52:10.269Z,3.20
2017-08-29T11:54:40.841Z,3.72
2017-08-29T11:57:08.362Z,3.58
2017-08-29T11:59:36.652Z,3.92
2017-08-29T12:02:04.171Z,3.62
2017-08-29T12:04:33.041Z,4.35
2017-08-29T12:07:00.568Z,4.40
2017-08-29T12:09:28.106Z,3.87
2017-08-29T12:11:55.636Z,3.85
2017-08-29T12:14:23.162Z,3.80
2017-08-29T12:16:50.677Z,3.67
2017-08-29T12:19:18.220Z,3.97
2017-08-29T12:21:45.732Z,4.82
2017-08-29T12:24:13.265Z,5.07
2017-08-29T12:26:41.624Z,3.30
2017-08-29T12:29:09.142Z,3.72
2017-08-29T12:31:36.663Z,4.20
2017-08-29T12:34:04.204Z,4.00
2017-08-29T12:36:31.745Z,5.90
2017-08-29T12:38:59.272Z,5.03
2017-08-29T12:41:26.804Z,4.07
2017-08-29T12:43:55.108Z,3.70
2017-08-29T12:46:22.629Z,4.65
2017-08-29T12:48:50.180Z,3.78
2017-08-29T12:51:17.803Z,4.00
2017-08-29T12:53:45.331Z,3.47
2017-08-29T12:56:12.843Z,5.00
2017-08-29T12:58:40.372Z,3.92
2017-08-29T13:01:08.655Z,3.53
2017-08-29T13:03:36.160Z,3.58
2017-08-29T13:06:05.058Z,3.72
2017-08-29T13:08:32.573Z,2.90
2017-08-29T13:11:00.107Z,3.10
2017-08-29T13:13:27.618Z,3.70
2017-08-29T13:15:55.155Z,3.55
2017-08-29T13:18:22.669Z,3.50
2017-08-29T13:20:50.187Z,3.90
2017-08-29T13:23:17.699Z,4.07
2017-08-29T13:25:45.226Z,3.20
2017-08-29T13:28:12.752Z,3.95
2017-08-29T13:30:41.427Z,3.15
2017-08-29T13:33:09.032Z,3.50
2017-08-29T13:35:36.580Z,3.33
2017-08-29T13:38:04.153Z,4.65
2017-08-29T13:40:31.676Z,4.15
2017-08-29T13:42:59.194Z,3.17
2017-08-29T13:45:26.730Z,3.33
2017-08-29T13:47:54.229Z,3.45
2017-08-29T13:50:21.763Z,4.82
2017-08-29T13:52:49.273Z,3.30
2017-08-29T13:55:16.776Z,3.15
2017-08-29T13:57:44.299Z,2.65
2017-08-29T14:00:11.823Z,4.90
2017-08-29T14:02:39.344Z,5.10
2017-08-29T14:05:06.870Z,3.08
2017-08-29T14:07:35.546Z,3.10
2017-08-29T14:10:03.057Z,4.05
2017-08-29T14:12:30.603Z,3.67
2017-08-29T14:14:58.112Z,3.83
2017-08-29T14:17:25.631Z,3.47
2017-08-29T14:19:53.142Z,3.72
2017-08-29T14:22:20.678Z,4.22
2017-08-29T14:24:48.181Z,4.03
2017-08-29T14:27:15.718Z,3.60
2017-08-29T14:29:43.293Z,3.78
2017-08-29T14:32:10.829Z,3.95
2017-08-29T14:34:39.710Z,3.78
2017-08-29T14:37:07.984Z,3.47
2017-08-29T14:39:36.294Z,3.90
2017-08-29T14:42:05.161Z,3.40
2017-08-29T14:44:34.051Z,2.90
2017-08-29T14:47:08.875Z,3.42
2017-08-29T14:49:37.757Z,3.75
2017-08-29T14:52:06.037Z,4.60
2017-08-29T14:54:33.573Z,3.70
2017-08-29T14:57:01.076Z,4.22
2017-08-29T14:59:29.364Z,4.10
2017-08-29T15:01:56.873Z,4.00
2017-08-29T15:04:24.423Z,3.53
2017-08-29T15:06:51.968Z,4.82
2017-08-29T15:09:19.490Z,3.22
2017-08-29T15:11:47.001Z,3.70
2017-08-29T15:14:14.550Z,2.97
2017-08-29T15:16:42.068Z,2.72
2017-08-29T15:19:10.359Z,4.95
2017-08-29T15:21:37.882Z,3.25
2017-08-29T15:24:05.404Z,4.28
2017-08-29T15:26:32.918Z,4.15
2017-08-29T15:29:00.436Z,3.65
2017-08-29T15:31:27.957Z,3.42
2017-08-29T15:33:55.484Z,5.00
2017-08-29T15:36:23.095Z,3.35
2017-08-29T15:38:50.606Z,3.30
2017-08-29T15:41:18.138Z,3.47
2017-08-29T15:43:45.776Z,3.17
2017-08-29T15:46:14.638Z,3.20
2017-08-29T15:48:42.144Z,3.53
2017-08-29T15:51:11.034Z,3.80
2017-08-29T15:53:39.891Z,3.35
2017-08-29T15:56:08.765Z,3.33
2017-08-29T15:58:37.620Z,3.40
2017-08-29T16:01:06.509Z,3.60
2017-08-29T16:03:35.365Z,3.97
2017-08-29T16:06:04.254Z,4.23
2017-08-29T16:08:33.156Z,4.60
2017-08-29T16:11:02.089Z,4.10
2017-08-29T16:13:30.957Z,4.60
2017-08-29T16:15:59.826Z,3.83
2017-08-29T16:18:28.714Z,4.07
2017-08-29T16:20:57.583Z,3.80
2017-08-29T16:23:26.476Z,4.00
2017-08-29T16:25:55.339Z,3.67
2017-08-29T16:28:24.225Z,4.90
2017-08-29T16:30:53.080Z,3.87
2017-08-29T16:33:21.957Z,4.97
2017-08-29T16:35:50.838Z,3.87
2017-08-29T16:38:19.708Z,4.30
2017-08-29T16:40:48.569Z,4.00
2017-08-29T16:43:17.445Z,4.37
2017-08-29T16:45:46.318Z,5.17
2017-08-29T16:48:15.202Z,4.53
2017-08-29T16:50:44.079Z,3.80
2017-08-29T16:53:12.948Z,3.57
2017-08-29T16:55:41.835Z,3.87
2017-08-29T16:58:10.719Z,3.67
2017-08-29T17:00:39.581Z,4.30
2017-08-29T17:03:08.456Z,8.87
2017-08-29T17:05:37.326Z,8.40
2017-08-29T17:08:06.199Z,4.20
2017-08-29T17:10:35.063Z,3.57
2017-08-29T17:13:03.952Z,4.10
2017-08-29T17:15:32.809Z,3.77
2017-08-29T17:18:01.701Z,4.23
2017-08-29T17:20:30.561Z,6.33
2017-08-29T17:22:59.425Z,5.73
2017-08-29T17:25:28.305Z,4.57
2017-08-29T17:27:57.166Z,4.50
2017-08-29T17:30:26.043Z,4.10
2017-08-29T17:32:54.895Z,4.13
2017-08-29T17:35:23.790Z,5.03
2017-08-29T17:37:52.657Z,4.27
2017-08-29T17:40:21.537Z,4.80
2017-08-29T17:42:50.405Z,6.40
2017-08-29T17:45:19.284Z,5.30
2017-08-29T17:47:48.154Z,4.93
2017-08-29T17:50:17.040Z,5.63
2017-08-29T17:52:45.895Z,6.63
2017-08-29T17:55:14.773Z,5.80
2017-08-29T17:57:43.627Z,8.90
2017-08-29T18:00:12.497Z,9.70
2017-08-29T18:02:41.438Z,9.00
2017-08-29T18:05:10.330Z,13.60
2017-08-29T18:07:39.203Z,5.60
2017-08-29T18:10:08.091Z,7.40
2017-08-29T18:12:36.954Z,7.60
2017-08-29T18:15:05.916Z,14.47
2017-08-29T18:17:34.802Z,6.27
2017-08-29T18:20:03.693Z,5.60
2017-08-29T18:22:32.562Z,7.13
2017-08-29T18:25:01.437Z,7.90
2017-08-29T18:27:30.304Z,7.17
2017-08-29T18:29:59.193Z,7.90
2017-08-29T18:32:28.121Z,8.00
2017-08-29T18:34:56.973Z,8.20
2017-08-29T18:37:25.840Z,8.07
2017-08-29T18:39:54.701Z,6.13
2017-08-29T18:42:23.575Z,6.97
2017-08-29T18:44:52.427Z,8.20
2017-08-29T18:47:21.302Z,8.50
2017-08-29T18:49:50.168Z,8.00
2017-08-29T18:52:19.059Z,10.10
2017-08-29T18:54:47.948Z,7.87
2017-08-29T18:57:16.839Z,11.23
2017-08-29T18:59:45.704Z,7.97
2017-08-29T19:02:14.584Z,6.47
2017-08-29T19:04:43.449Z,6.40
2017-08-29T19:07:12.381Z,7.83
2017-08-29T19:09:41.236Z,6.40
2017-08-29T19:12:10.116Z,6.83
2017-08-29T19:14:38.971Z,6.87
2017-08-29T19:17:07.878Z,9.13
2017-08-29T19:19:36.731Z,10.03
2017-08-29T19:22:05.584Z,6.83
2017-08-29T19:24:34.448Z,9.43
2017-08-29T19:27:03.337Z,10.03
2017-08-29T19:29:32.221Z,10.23
2017-08-29T19:32:01.067Z,9.93
2017-08-29T19:34:29.940Z,9.00
2017-08-29T19:36:58.799Z,10.70
2017-08-29T19:39:27.687Z,8.97
2017-08-29T19:41:56.556Z,8.47
2017-08-29T19:44:25.433Z,8.07
2017-08-29T19:46:54.279Z,8.63
2017-08-29T19:49:23.161Z,8.47
2017-08-29T19:51:52.016Z,8.97
2017-08-29T19:54:20.886Z,8.33
2017-08-29T19:56:49.749Z,8.07
2017-08-29T19:59:18.624Z,7.70
2017-08-29T20:01:47.479Z,8.70
2017-08-29T20:04:16.363Z,7.57
2017-08-29T20:06:45.225Z,7.87
2017-08-29T20:09:14.109Z,6.83
2017-08-29T20:11:42.969Z,7.53
2017-08-29T20:14:11.891Z,6.90
2017-08-29T20:16:40.759Z,8.50
2017-08-29T20:19:09.626Z,8.00
2017-08-29T20:21:38.505Z,7.67
2017-08-29T20:24:07.376Z,7.07
2017-08-29T20:26:36.250Z,7.50
2017-08-29T20:29:05.114Z,8.10
2017-08-29T20:31:34.001Z,9.03
2017-08-29T20:34:02.860Z,8.20
2017-08-29T20:36:32.261Z,7.90
2017-08-29T20:39:01.119Z,7.80
2017-08-29T20:41:30.007Z,6.20
2017-08-29T20:43:58.869Z,7.90
2017-08-29T20:46:27.747Z,7.33
2017-08-29T20:48:56.609Z,9.13
2017-08-29T20:51:25.498Z,8.93
2017-08-29T20:53:54.361Z,7.87
2017-08-29T20:56:23.239Z,9.00
2017-08-29T20:58:52.134Z,7.50
2017-08-29T21:01:21.017Z,8.10
2017-08-29T21:03:49.876Z,8.83
2017-08-29T21:06:18.741Z,8.77
2017-08-29T21:08:47.623Z,8.53
2017-08-29T21:11:16.503Z,7.90
2017-08-29T21:13:45.371Z,8.10
2017-08-29T21:16:14.228Z,7.37
2017-08-29T21:18:43.105Z,8.07
2017-08-29T21:21:11.956Z,7.93
2017-08-29T21:23:40.829Z,9.30
2017-08-29T21:26:09.684Z,8.93
2017-08-29T21:28:38.557Z,9.40
2017-08-29T21:31:07.435Z,8.40
2017-08-29T21:33:36.317Z,8.10
2017-08-29T21:36:05.187Z,8.97
2017-08-29T21:38:34.078Z,10.33
2017-08-29T21:41:03.112Z,8.53
2017-08-29T21:43:31.991Z,7.77
2017-08-29T21:46:00.854Z,8.00
2017-08-29T21:48:29.746Z,9.13
2017-08-29T21:50:58.605Z,8.70
2017-08-29T21:53:27.475Z,8.90
2017-08-29T21:55:56.350Z,9.20
2017-08-29T21:58:25.229Z,8.30
2017-08-29T22:00:54.095Z,9.80
2017-08-29T22:03:22.981Z,9.10
2017-08-29T22:05:51.846Z,8.53
2017-08-29T22:08:20.729Z,8.90
2017-08-29T22:10:49.584Z,9.37
2017-08-29T22:13:18.476Z,9.00
2017-08-29T22:15:47.353Z,10.27
2017-08-29T22:18:16.212Z,8.70
2017-08-29T22:20:45.091Z,13.50
2017-08-29T22:23:13.959Z,9.03
2017-08-29T22:25:42.836Z,10.03
2017-08-29T22:28:11.770Z,9.77
2017-08-29T22:30:40.664Z,8.83
2017-08-29T22:33:09.517Z,10.50
2017-08-29T22:35:38.384Z,9.57
2017-08-29T22:38:07.266Z,8.33
2017-08-29T22:40:36.166Z,10.67
2017-08-29T22:43:05.037Z,9.10
2017-08-29T22:45:33.916Z,10.13
2017-08-29T22:48:02.777Z,9.90
2017-08-29T22:50:31.650Z,9.23
2017-08-29T22:53:00.499Z,9.93
2017-08-29T22:55:29.371Z,8.93
2017-08-29T22:57:58.241Z,10.57
2017-08-29T23:00:27.112Z,10.70
2017-08-29T23:02:55.981Z,9.60
2017-08-29T23:05:24.878Z,9.70
2017-08-29T23:07:53.734Z,11.07
2017-08-29T23:10:22.608Z,9.63
2017-08-29T23:12:51.465Z,9.90
2017-08-29T23:15:20.328Z,8.93
2017-08-29T23:17:49.199Z,10.97
2017-08-29T23:20:18.087Z,10.93
2017-08-29T23:22:46.956Z,10.40
2017-08-29T23:25:15.829Z,10.60
2017-08-29T23:27:44.689Z,9.67
2017-08-29T23:30:13.577Z,10.70
2017-08-29T23:32:42.439Z,11.47
2017-08-29T23:35:11.310Z,9.40
2017-08-29T23:37:40.183Z,9.97
2017-08-29T23:40:09.061Z,11.40
2017-08-29T23:42:37.920Z,11.23
2017-08-29T23:45:06.810Z,10.37
2017-08-29T23:47:35.669Z,10.40
2017-08-29T23:50:04.586Z,11.10
2017-08-29T23:52:33.449Z,10.73
2017-08-29T23:55:02.353Z,12.03
2017-08-29T23:57:31.230Z,11.77
